sensor_id;sensor_type;location;lat;lon;timestamp;P1;durP1;ratioP1;P2;durP2;ratioP2
66575;SDS011;53428;47.686;16.584;2023-09-08T00:02:46;7.40;;;4.50;;
66575;SDS011;53428;47.686;16.584;2023-09-08T00:07:45;7.25;;;5.47;;
66575;SDS011;53428;47.686;16.584;2023-09-08T00:12:44;6.78;;;4.43;;
66575;SDS011;53428;47.686;16.584;2023-09-08T00:17:43;6.70;;;3.92;;
66575;SDS011;53428;47.686;16.584;2023-09-08T00:22:46;7.40;;;4.13;;
66575;SDS011;53428;47.686;16.584;2023-09-08T00:27:45;9.73;;;4.40;;
66575;SDS011;53428;47.686;16.584;2023-09-08T00:32:44;6.07;;;4.13;;
66575;SDS011;53428;47.686;16.584;2023-09-08T00:37:43;6.50;;;4.15;;
66575;SDS011;53428;47.686;16.584;2023-09-08T00:42:42;8.73;;;4.70;;
66575;SDS011;53428;47.686;16.584;2023-09-08T00:47:42;7.97;;;4.32;;
66575;SDS011;53428;47.686;16.584;2023-09-08T00:52:41;8.40;;;5.07;;
66575;SDS011;53428;47.686;16.584;2023-09-08T00:57:40;5.70;;;3.90;;
66575;SDS011;53428;47.686;16.584;2023-09-08T01:02:40;6.82;;;4.35;;
66575;SDS011;53428;47.686;16.584;2023-09-08T01:07:39;5.15;;;4.30;;
66575;SDS011;53428;47.686;16.584;2023-09-08T01:12:39;6.32;;;4.68;;
66575;SDS011;53428;47.686;16.584;2023-09-08T01:17:39;7.85;;;4.78;;
66575;SDS011;53428;47.686;16.584;2023-09-08T01:22:54;8.98;;;4.38;;
66575;SDS011;53428;47.686;16.584;2023-09-08T01:28:01;7.07;;;4.50;;
66575;SDS011;53428;47.686;16.584;2023-09-08T01:33:02;6.78;;;4.80;;
66575;SDS011;53428;47.686;16.584;2023-09-08T01:38:02;8.38;;;5.25;;
66575;SDS011;53428;47.686;16.584;2023-09-08T01:43:02;8.18;;;5.07;;
66575;SDS011;53428;47.686;16.584;2023-09-08T01:48:01;6.82;;;4.72;;
66575;SDS011;53428;47.686;16.584;2023-09-08T01:53:00;10.88;;;4.53;;
66575;SDS011;53428;47.686;16.584;2023-09-08T01:58:00;7.70;;;4.63;;
66575;SDS011;53428;47.686;16.584;2023-09-08T02:02:59;11.07;;;5.10;;
66575;SDS011;53428;47.686;16.584;2023-09-08T02:07:59;6.97;;;4.63;;
66575;SDS011;53428;47.686;16.584;2023-09-08T02:12:59;5.40;;;4.10;;
66575;SDS011;53428;47.686;16.584;2023-09-08T02:17:59;5.47;;;4.38;;
66575;SDS011;53428;47.686;16.584;2023-09-08T02:23:03;10.40;;;4.40;;
66575;SDS011;53428;47.686;16.584;2023-09-08T02:28:03;8.75;;;5.13;;
66575;SDS011;53428;47.686;16.584;2023-09-08T02:33:03;10.00;;;4.43;;
66575;SDS011;53428;47.686;16.584;2023-09-08T02:38:02;6.00;;;4.38;;
66575;SDS011;53428;47.686;16.584;2023-09-08T02:43:02;6.57;;;4.07;;
66575;SDS011;53428;47.686;16.584;2023-09-08T02:48:01;9.25;;;4.53;;
66575;SDS011;53428;47.686;16.584;2023-09-08T02:53:00;6.00;;;4.13;;
66575;SDS011;53428;47.686;16.584;2023-09-08T02:58:00;6.80;;;4.35;;
66575;SDS011;53428;47.686;16.584;2023-09-08T03:02:59;9.85;;;4.72;;
66575;SDS011;53428;47.686;16.584;2023-09-08T03:07:58;6.97;;;4.63;;
66575;SDS011;53428;47.686;16.584;2023-09-08T03:12:58;10.13;;;5.40;;
66575;SDS011;53428;47.686;16.584;2023-09-08T03:17:58;8.35;;;5.25;;
66575;SDS011;53428;47.686;16.584;2023-09-08T03:22:57;8.00;;;4.78;;
66575;SDS011;53428;47.686;16.584;2023-09-08T03:27:57;8.23;;;5.10;;
66575;SDS011;53428;47.686;16.584;2023-09-08T03:32:57;11.57;;;6.05;;
66575;SDS011;53428;47.686;16.584;2023-09-08T03:37:56;8.88;;;5.40;;
66575;SDS011;53428;47.686;16.584;2023-09-08T03:42:55;16.95;;;6.05;;
66575;SDS011;53428;47.686;16.584;2023-09-08T03:47:54;17.50;;;6.18;;
66575;SDS011;53428;47.686;16.584;2023-09-08T03:52:54;11.20;;;5.55;;
66575;SDS011;53428;47.686;16.584;2023-09-08T03:57:53;8.75;;;5.45;;
66575;SDS011;53428;47.686;16.584;2023-09-08T04:02:52;13.45;;;5.80;;
66575;SDS011;53428;47.686;16.584;2023-09-08T04:07:52;14.88;;;5.68;;
66575;SDS011;53428;47.686;16.584;2023-09-08T04:12:52;27.85;;;6.93;;
66575;SDS011;53428;47.686;16.584;2023-09-08T04:17:51;12.02;;;5.88;;
66575;SDS011;53428;47.686;16.584;2023-09-08T04:22:50;15.15;;;5.88;;
66575;SDS011;53428;47.686;16.584;2023-09-08T04:27:50;10.70;;;6.25;;
66575;SDS011;53428;47.686;16.584;2023-09-08T04:32:49;12.75;;;5.82;;
66575;SDS011;53428;47.686;16.584;2023-09-08T04:37:48;8.63;;;5.53;;
66575;SDS011;53428;47.686;16.584;2023-09-08T04:42:47;10.52;;;6.68;;
66575;SDS011;53428;47.686;16.584;2023-09-08T04:47:46;10.90;;;5.90;;
66575;SDS011;53428;47.686;16.584;2023-09-08T04:52:46;20.00;;;7.07;;
66575;SDS011;53428;47.686;16.584;2023-09-08T04:57:45;9.27;;;5.28;;
66575;SDS011;53428;47.686;16.584;2023-09-08T05:02:44;14.50;;;6.50;;
66575;SDS011;53428;47.686;16.584;2023-09-08T05:07:43;20.23;;;6.78;;
66575;SDS011;53428;47.686;16.584;2023-09-08T05:12:44;17.83;;;5.47;;
66575;SDS011;53428;47.686;16.584;2023-09-08T05:17:44;15.88;;;5.75;;
66575;SDS011;53428;47.686;16.584;2023-09-08T05:22:43;11.43;;;7.03;;
66575;SDS011;53428;47.686;16.584;2023-09-08T05:27:43;15.27;;;7.40;;
66575;SDS011;53428;47.686;16.584;2023-09-08T05:32:44;15.93;;;8.48;;
66575;SDS011;53428;47.686;16.584;2023-09-08T05:37:43;18.65;;;9.82;;
66575;SDS011;53428;47.686;16.584;2023-09-08T05:42:43;23.48;;;10.13;;
66575;SDS011;53428;47.686;16.584;2023-09-08T05:47:42;25.77;;;11.55;;
66575;SDS011;53428;47.686;16.584;2023-09-08T05:52:41;21.10;;;10.23;;
66575;SDS011;53428;47.686;16.584;2023-09-08T05:57:41;18.75;;;10.30;;
66575;SDS011;53428;47.686;16.584;2023-09-08T06:02:40;23.45;;;9.38;;
66575;SDS011;53428;47.686;16.584;2023-09-08T06:07:39;16.15;;;8.70;;
66575;SDS011;53428;47.686;16.584;2023-09-08T06:12:38;14.95;;;8.82;;
66575;SDS011;53428;47.686;16.584;2023-09-08T06:17:38;14.27;;;8.55;;
66575;SDS011;53428;47.686;16.584;2023-09-08T06:22:37;14.48;;;9.20;;
66575;SDS011;53428;47.686;16.584;2023-09-08T06:27:36;15.25;;;8.70;;
66575;SDS011;53428;47.686;16.584;2023-09-08T06:32:35;23.70;;;10.27;;
66575;SDS011;53428;47.686;16.584;2023-09-08T06:37:38;15.80;;;7.85;;
66575;SDS011;53428;47.686;16.584;2023-09-08T06:42:37;16.88;;;8.63;;
66575;SDS011;53428;47.686;16.584;2023-09-08T06:47:36;24.65;;;11.07;;
66575;SDS011;53428;47.686;16.584;2023-09-08T06:52:36;16.30;;;8.25;;
66575;SDS011;53428;47.686;16.584;2023-09-08T06:57:35;15.20;;;7.93;;
66575;SDS011;53428;47.686;16.584;2023-09-08T07:02:34;14.07;;;7.05;;
66575;SDS011;53428;47.686;16.584;2023-09-08T07:07:34;11.00;;;7.15;;
66575;SDS011;53428;47.686;16.584;2023-09-08T07:12:34;13.82;;;7.60;;
66575;SDS011;53428;47.686;16.584;2023-09-08T07:17:33;16.98;;;7.47;;
66575;SDS011;53428;47.686;16.584;2023-09-08T07:22:32;17.05;;;7.88;;
66575;SDS011;53428;47.686;16.584;2023-09-08T07:27:32;14.55;;;7.13;;
66575;SDS011;53428;47.686;16.584;2023-09-08T07:32:31;15.73;;;6.93;;
66575;SDS011;53428;47.686;16.584;2023-09-08T07:37:30;14.05;;;6.78;;
66575;SDS011;53428;47.686;16.584;2023-09-08T07:42:29;9.05;;;5.57;;
66575;SDS011;53428;47.686;16.584;2023-09-08T07:47:29;11.05;;;6.78;;
66575;SDS011;53428;47.686;16.584;2023-09-08T07:52:28;13.38;;;5.22;;
66575;SDS011;53428;47.686;16.584;2023-09-08T07:57:27;8.25;;;5.68;;
66575;SDS011;53428;47.686;16.584;2023-09-08T08:02:27;8.43;;;4.88;;
66575;SDS011;53428;47.686;16.584;2023-09-08T08:07:26;7.45;;;4.80;;
66575;SDS011;53428;47.686;16.584;2023-09-08T08:18:21;8.75;;;5.03;;
66575;SDS011;53428;47.686;16.584;2023-09-08T08:23:20;9.85;;;5.05;;
66575;SDS011;53428;47.686;16.584;2023-09-08T08:28:19;10.57;;;5.10;;
66575;SDS011;53428;47.686;16.584;2023-09-08T08:33:19;7.80;;;4.57;;
66575;SDS011;53428;47.686;16.584;2023-09-08T08:38:20;14.68;;;5.78;;
66575;SDS011;53428;47.686;16.584;2023-09-08T08:43:19;8.13;;;5.03;;
66575;SDS011;53428;47.686;16.584;2023-09-08T08:48:21;18.73;;;5.03;;
66575;SDS011;53428;47.686;16.584;2023-09-08T08:53:21;10.02;;;4.93;;
66575;SDS011;53428;47.686;16.584;2023-09-08T08:58:21;8.55;;;4.45;;
66575;SDS011;53428;47.686;16.584;2023-09-08T09:03:26;17.00;;;5.40;;
66575;SDS011;53428;47.686;16.584;2023-09-08T09:08:26;7.18;;;4.63;;
66575;SDS011;53428;47.686;16.584;2023-09-08T09:13:27;11.43;;;5.18;;
66575;SDS011;53428;47.686;16.584;2023-09-08T09:18:26;8.95;;;5.55;;
66575;SDS011;53428;47.686;16.584;2023-09-08T09:23:29;7.20;;;5.05;;
66575;SDS011;53428;47.686;16.584;2023-09-08T09:28:33;7.35;;;3.55;;
66575;SDS011;53428;47.686;16.584;2023-09-08T09:33:32;8.77;;;4.97;;
66575;SDS011;53428;47.686;16.584;2023-09-08T09:38:31;6.55;;;5.00;;
66575;SDS011;53428;47.686;16.584;2023-09-08T09:43:34;7.57;;;4.60;;
66575;SDS011;53428;47.686;16.584;2023-09-08T09:48:33;11.48;;;5.20;;
66575;SDS011;53428;47.686;16.584;2023-09-08T09:53:34;6.35;;;4.28;;
66575;SDS011;53428;47.686;16.584;2023-09-08T09:58:33;9.80;;;5.97;;
66575;SDS011;53428;47.686;16.584;2023-09-08T10:03:36;10.23;;;4.60;;
66575;SDS011;53428;47.686;16.584;2023-09-08T10:08:37;7.80;;;4.50;;
66575;SDS011;53428;47.686;16.584;2023-09-08T10:13:42;4.57;;;3.38;;
66575;SDS011;53428;47.686;16.584;2023-09-08T10:18:47;5.30;;;3.83;;
66575;SDS011;53428;47.686;16.584;2023-09-08T10:28:56;8.15;;;3.78;;
66575;SDS011;53428;47.686;16.584;2023-09-08T10:33:56;5.60;;;3.70;;
66575;SDS011;53428;47.686;16.584;2023-09-08T10:39:38;10.13;;;4.20;;
66575;SDS011;53428;47.686;16.584;2023-09-08T10:44:34;5.78;;;4.07;;
66575;SDS011;53428;47.686;16.584;2023-09-08T10:49:36;5.75;;;3.85;;
66575;SDS011;53428;47.686;16.584;2023-09-08T10:54:40;5.47;;;3.50;;
66575;SDS011;53428;47.686;16.584;2023-09-08T11:04:54;5.55;;;3.70;;
66575;SDS011;53428;47.686;16.584;2023-09-08T11:09:54;6.03;;;3.25;;
66575;SDS011;53428;47.686;16.584;2023-09-08T11:14:53;5.07;;;3.85;;
66575;SDS011;53428;47.686;16.584;2023-09-08T11:19:53;7.88;;;3.70;;
66575;SDS011;53428;47.686;16.584;2023-09-08T11:24:53;6.22;;;3.80;;
66575;SDS011;53428;47.686;16.584;2023-09-08T11:29:55;7.53;;;3.55;;
66575;SDS011;53428;47.686;16.584;2023-09-08T11:34:56;11.00;;;3.85;;
66575;SDS011;53428;47.686;16.584;2023-09-08T11:40:02;4.07;;;3.35;;
66575;SDS011;53428;47.686;16.584;2023-09-08T11:45:06;4.82;;;3.35;;
66575;SDS011;53428;47.686;16.584;2023-09-08T11:50:07;5.75;;;3.35;;
66575;SDS011;53428;47.686;16.584;2023-09-08T11:55:07;3.67;;;3.05;;
66575;SDS011;53428;47.686;16.584;2023-09-08T12:00:07;4.72;;;3.45;;
66575;SDS011;53428;47.686;16.584;2023-09-08T12:05:13;6.47;;;4.00;;
66575;SDS011;53428;47.686;16.584;2023-09-08T12:10:22;6.70;;;2.65;;
66575;SDS011;53428;47.686;16.584;2023-09-08T12:15:31;4.65;;;3.13;;
66575;SDS011;53428;47.686;16.584;2023-09-08T12:20:35;4.65;;;3.28;;
66575;SDS011;53428;47.686;16.584;2023-09-08T12:25:44;3.95;;;3.28;;
66575;SDS011;53428;47.686;16.584;2023-09-08T12:30:44;7.13;;;3.45;;
66575;SDS011;53428;47.686;16.584;2023-09-08T12:35:44;6.32;;;3.28;;
66575;SDS011;53428;47.686;16.584;2023-09-08T12:40:44;5.20;;;3.58;;
66575;SDS011;53428;47.686;16.584;2023-09-08T12:45:44;8.18;;;3.53;;
66575;SDS011;53428;47.686;16.584;2023-09-08T12:50:46;5.32;;;3.72;;
66575;SDS011;53428;47.686;16.584;2023-09-08T12:55:46;8.43;;;3.78;;
66575;SDS011;53428;47.686;16.584;2023-09-08T13:00:46;7.07;;;3.10;;
66575;SDS011;53428;47.686;16.584;2023-09-08T13:05:45;6.05;;;3.22;;
66575;SDS011;53428;47.686;16.584;2023-09-08T13:10:45;5.88;;;3.05;;
66575;SDS011;53428;47.686;16.584;2023-09-08T13:15:44;5.07;;;3.28;;
66575;SDS011;53428;47.686;16.584;2023-09-08T13:20:44;4.13;;;3.50;;
66575;SDS011;53428;47.686;16.584;2023-09-08T13:25:43;8.60;;;3.35;;
66575;SDS011;53428;47.686;16.584;2023-09-08T13:30:43;4.75;;;3.38;;
66575;SDS011;53428;47.686;16.584;2023-09-08T13:35:43;4.00;;;2.60;;
66575;SDS011;53428;47.686;16.584;2023-09-08T13:40:43;7.13;;;3.35;;
66575;SDS011;53428;47.686;16.584;2023-09-08T13:45:43;5.90;;;3.55;;
66575;SDS011;53428;47.686;16.584;2023-09-08T13:50:42;6.18;;;3.25;;
66575;SDS011;53428;47.686;16.584;2023-09-08T13:55:42;4.95;;;3.00;;
66575;SDS011;53428;47.686;16.584;2023-09-08T14:00:43;12.02;;;3.53;;
66575;SDS011;53428;47.686;16.584;2023-09-08T14:05:45;5.72;;;3.70;;
66575;SDS011;53428;47.686;16.584;2023-09-08T14:10:44;5.20;;;3.55;;
66575;SDS011;53428;47.686;16.584;2023-09-08T14:15:44;9.23;;;3.50;;
66575;SDS011;53428;47.686;16.584;2023-09-08T14:20:44;5.97;;;3.17;;
66575;SDS011;53428;47.686;16.584;2023-09-08T14:25:44;5.05;;;3.67;;
66575;SDS011;53428;47.686;16.584;2023-09-08T14:30:43;5.28;;;2.85;;
66575;SDS011;53428;47.686;16.584;2023-09-08T14:35:43;5.38;;;3.40;;
66575;SDS011;53428;47.686;16.584;2023-09-08T14:45:43;6.53;;;3.40;;
66575;SDS011;53428;47.686;16.584;2023-09-08T14:55:42;4.68;;;2.95;;
66575;SDS011;53428;47.686;16.584;2023-09-08T15:00:44;4.50;;;3.17;;
66575;SDS011;53428;47.686;16.584;2023-09-08T15:05:45;8.30;;;3.25;;
66575;SDS011;53428;47.686;16.584;2023-09-08T15:10:45;5.20;;;3.17;;
66575;SDS011;53428;47.686;16.584;2023-09-08T15:15:44;5.18;;;3.53;;
66575;SDS011;53428;47.686;16.584;2023-09-08T15:20:53;4.07;;;3.33;;
66575;SDS011;53428;47.686;16.584;2023-09-08T15:25:56;15.13;;;3.50;;
66575;SDS011;53428;47.686;16.584;2023-09-08T15:30:57;9.35;;;3.35;;
66575;SDS011;53428;47.686;16.584;2023-09-08T15:35:57;7.82;;;3.90;;
66575;SDS011;53428;47.686;16.584;2023-09-08T15:46:15;7.63;;;3.38;;
66575;SDS011;53428;47.686;16.584;2023-09-08T15:51:15;6.93;;;3.80;;
66575;SDS011;53428;47.686;16.584;2023-09-08T15:56:15;8.32;;;4.22;;
66575;SDS011;53428;47.686;16.584;2023-09-08T16:01:15;5.82;;;3.38;;
66575;SDS011;53428;47.686;16.584;2023-09-08T16:06:15;5.50;;;3.28;;
66575;SDS011;53428;47.686;16.584;2023-09-08T16:11:17;6.97;;;3.92;;
66575;SDS011;53428;47.686;16.584;2023-09-08T16:16:17;6.03;;;3.72;;
66575;SDS011;53428;47.686;16.584;2023-09-08T16:21:16;5.88;;;4.05;;
66575;SDS011;53428;47.686;16.584;2023-09-08T16:26:16;7.75;;;3.05;;
66575;SDS011;53428;47.686;16.584;2023-09-08T16:31:16;7.22;;;4.18;;
66575;SDS011;53428;47.686;16.584;2023-09-08T16:36:16;7.35;;;4.15;;
66575;SDS011;53428;47.686;16.584;2023-09-08T16:41:16;8.73;;;4.05;;
66575;SDS011;53428;47.686;16.584;2023-09-08T16:46:16;6.53;;;3.95;;
66575;SDS011;53428;47.686;16.584;2023-09-08T16:51:16;9.95;;;4.65;;
66575;SDS011;53428;47.686;16.584;2023-09-08T16:56:16;8.35;;;4.68;;
66575;SDS011;53428;47.686;16.584;2023-09-08T17:01:16;6.18;;;3.67;;
66575;SDS011;53428;47.686;16.584;2023-09-08T17:06:16;10.90;;;4.93;;
66575;SDS011;53428;47.686;16.584;2023-09-08T17:11:15;5.18;;;4.15;;
66575;SDS011;53428;47.686;16.584;2023-09-08T17:16:17;10.57;;;4.00;;
66575;SDS011;53428;47.686;16.584;2023-09-08T17:21:16;9.52;;;4.18;;
66575;SDS011;53428;47.686;16.584;2023-09-08T17:26:16;5.13;;;3.92;;
66575;SDS011;53428;47.686;16.584;2023-09-08T17:31:16;9.30;;;4.93;;
66575;SDS011;53428;47.686;16.584;2023-09-08T17:36:16;9.60;;;4.20;;
66575;SDS011;53428;47.686;16.584;2023-09-08T17:41:16;6.95;;;4.07;;
66575;SDS011;53428;47.686;16.584;2023-09-08T17:46:16;7.57;;;4.60;;
66575;SDS011;53428;47.686;16.584;2023-09-08T17:51:16;9.85;;;3.80;;
66575;SDS011;53428;47.686;16.584;2023-09-08T17:56:24;11.65;;;5.30;;
66575;SDS011;53428;47.686;16.584;2023-09-08T18:01:24;8.27;;;4.45;;
66575;SDS011;53428;47.686;16.584;2023-09-08T18:06:24;7.28;;;5.55;;
66575;SDS011;53428;47.686;16.584;2023-09-08T18:11:24;9.45;;;4.32;;
66575;SDS011;53428;47.686;16.584;2023-09-08T18:16:25;10.70;;;4.68;;
66575;SDS011;53428;47.686;16.584;2023-09-08T18:21:24;14.43;;;5.18;;
66575;SDS011;53428;47.686;16.584;2023-09-08T18:26:24;12.50;;;4.82;;
66575;SDS011;53428;47.686;16.584;2023-09-08T18:31:26;6.38;;;5.20;;
66575;SDS011;53428;47.686;16.584;2023-09-08T18:36:28;8.85;;;5.25;;
66575;SDS011;53428;47.686;16.584;2023-09-08T18:41:28;10.13;;;5.35;;
66575;SDS011;53428;47.686;16.584;2023-09-08T18:46:28;8.98;;;5.93;;
66575;SDS011;53428;47.686;16.584;2023-09-08T18:51:30;10.20;;;5.68;;
66575;SDS011;53428;47.686;16.584;2023-09-08T18:56:30;13.52;;;6.18;;
66575;SDS011;53428;47.686;16.584;2023-09-08T19:01:30;9.52;;;5.47;;
66575;SDS011;53428;47.686;16.584;2023-09-08T19:06:29;8.55;;;4.90;;
66575;SDS011;53428;47.686;16.584;2023-09-08T19:11:29;6.78;;;5.88;;
66575;SDS011;53428;47.686;16.584;2023-09-08T19:16:29;8.13;;;5.80;;
66575;SDS011;53428;47.686;16.584;2023-09-08T19:21:30;8.70;;;5.35;;
66575;SDS011;53428;47.686;16.584;2023-09-08T19:26:30;10.07;;;5.70;;
66575;SDS011;53428;47.686;16.584;2023-09-08T19:31:30;8.75;;;5.10;;
66575;SDS011;53428;47.686;16.584;2023-09-08T19:36:32;11.73;;;5.47;;
66575;SDS011;53428;47.686;16.584;2023-09-08T19:41:32;10.75;;;5.25;;
66575;SDS011;53428;47.686;16.584;2023-09-08T19:46:37;9.52;;;5.70;;
66575;SDS011;53428;47.686;16.584;2023-09-08T19:51:37;19.42;;;6.72;;
66575;SDS011;53428;47.686;16.584;2023-09-08T19:56:37;18.15;;;8.02;;
66575;SDS011;53428;47.686;16.584;2023-09-08T20:01:39;10.55;;;6.15;;
66575;SDS011;53428;47.686;16.584;2023-09-08T20:06:39;11.70;;;7.15;;
66575;SDS011;53428;47.686;16.584;2023-09-08T20:11:44;11.02;;;7.00;;
66575;SDS011;53428;47.686;16.584;2023-09-08T20:16:44;11.05;;;6.03;;
66575;SDS011;53428;47.686;16.584;2023-09-08T20:21:44;10.93;;;6.78;;
66575;SDS011;53428;47.686;16.584;2023-09-08T20:26:44;10.82;;;7.35;;
66575;SDS011;53428;47.686;16.584;2023-09-08T20:31:44;9.57;;;6.00;;
66575;SDS011;53428;47.686;16.584;2023-09-08T20:36:44;9.98;;;6.65;;
66575;SDS011;53428;47.686;16.584;2023-09-08T20:41:44;10.23;;;6.68;;
66575;SDS011;53428;47.686;16.584;2023-09-08T20:46:44;10.00;;;6.97;;
66575;SDS011;53428;47.686;16.584;2023-09-08T20:51:45;11.27;;;6.28;;
66575;SDS011;53428;47.686;16.584;2023-09-08T20:56:45;12.40;;;7.28;;
66575;SDS011;53428;47.686;16.584;2023-09-08T21:01:44;9.43;;;5.93;;
66575;SDS011;53428;47.686;16.584;2023-09-08T21:06:44;12.15;;;7.43;;
66575;SDS011;53428;47.686;16.584;2023-09-08T21:11:43;11.82;;;6.93;;
66575;SDS011;53428;47.686;16.584;2023-09-08T21:16:44;13.20;;;7.18;;
66575;SDS011;53428;47.686;16.584;2023-09-08T21:21:43;15.85;;;6.47;;
66575;SDS011;53428;47.686;16.584;2023-09-08T21:26:43;11.20;;;5.95;;
66575;SDS011;53428;47.686;16.584;2023-09-08T21:31:42;10.70;;;6.57;;
66575;SDS011;53428;47.686;16.584;2023-09-08T21:36:43;8.75;;;6.65;;
66575;SDS011;53428;47.686;16.584;2023-09-08T21:41:45;7.80;;;5.57;;
66575;SDS011;53428;47.686;16.584;2023-09-08T21:46:44;9.30;;;5.93;;
66575;SDS011;53428;47.686;16.584;2023-09-08T21:51:43;10.07;;;6.32;;
66575;SDS011;53428;47.686;16.584;2023-09-08T21:56:46;7.15;;;5.18;;
66575;SDS011;53428;47.686;16.584;2023-09-08T22:01:47;9.93;;;6.32;;
66575;SDS011;53428;47.686;16.584;2023-09-08T22:06:47;9.77;;;6.68;;
66575;SDS011;53428;47.686;16.584;2023-09-08T22:11:48;10.82;;;6.40;;
66575;SDS011;53428;47.686;16.584;2023-09-08T22:16:47;9.55;;;5.55;;
66575;SDS011;53428;47.686;16.584;2023-09-08T22:21:47;7.70;;;5.45;;
66575;SDS011;53428;47.686;16.584;2023-09-08T22:26:46;8.80;;;6.13;;
66575;SDS011;53428;47.686;16.584;2023-09-08T22:31:45;6.15;;;5.53;;
66575;SDS011;53428;47.686;16.584;2023-09-08T22:36:45;9.00;;;5.75;;
66575;SDS011;53428;47.686;16.584;2023-09-08T22:41:44;9.30;;;5.70;;
66575;SDS011;53428;47.686;16.584;2023-09-08T22:46:43;14.88;;;7.93;;
66575;SDS011;53428;47.686;16.584;2023-09-08T22:51:43;6.47;;;5.22;;
66575;SDS011;53428;47.686;16.584;2023-09-08T22:56:42;7.13;;;6.03;;
66575;SDS011;53428;47.686;16.584;2023-09-08T23:01:41;8.35;;;5.38;;
66575;SDS011;53428;47.686;16.584;2023-09-08T23:06:41;7.20;;;5.55;;
66575;SDS011;53428;47.686;16.584;2023-09-08T23:11:42;6.70;;;5.55;;
66575;SDS011;53428;47.686;16.584;2023-09-08T23:16:41;9.45;;;6.05;;
66575;SDS011;53428;47.686;16.584;2023-09-08T23:21:41;10.82;;;6.10;;
66575;SDS011;53428;47.686;16.584;2023-09-08T23:26:40;10.38;;;7.00;;
66575;SDS011;53428;47.686;16.584;2023-09-08T23:31:39;9.52;;;6.70;;
66575;SDS011;53428;47.686;16.584;2023-09-08T23:36:39;9.98;;;7.20;;
66575;SDS011;53428;47.686;16.584;2023-09-08T23:41:38;10.88;;;7.05;;
66575;SDS011;53428;47.686;16.584;2023-09-08T23:46:38;7.05;;;6.15;;
66575;SDS011;53428;47.686;16.584;2023-09-08T23:51:37;21.45;;;14.70;;
66575;SDS011;53428;47.686;16.584;2023-09-08T23:56:37;10.45;;;6.30;;
